PWSweather.com
Personal Weather Stations
Station Observations
ELGHEKO
El Gheko Neighborhood Association, Tucson, AZ 85710

El Gheko Neighborhood AssociationTucson, AZ 85710

Lat: 32.226108, Lon: -110.84443

Elevation: 2598

Station Type: Davis 6153 Vantage Pro 2

http://www.elgheko.us

High Low Average
Temperature 102.1°F38.9°C 71.5°F21.9°C 86.7°F30.4°C
Dew Point 59.5°F15.3°C 38.4°F3.6°C 50.4°F10.2°C
Winds 14.0 mph 22.5 kmh Calm Calm 3.0 mph SW4.8 kmh SW
Wind Gusts 31.0 mph49.9 kmh 1.0 mph1.6 kmh 7.0 mph11.3 kmh
Humidity 54% 12% 33%
Pressure 29.89 in1012.2 mb 29.70 in1005.8 mb -
Precipitation 0.00 in0.0 mm - -
Hour Temp Dew Point Humidity Winds Wind Gusts Pressure Precip Precip Rate Daily Precip Total
12:00 AM 79.1°F26.2°C 54.0°F12.2°C 42% Calm Calm 1.0 mph1.6 kmh 29.77 in1008.1 mb 0.00 in0.0 mm 0.00 in0.0 mm 0.00 in0.0 mm
12:05 AM 78.7°F25.9°C 53.7°F12.1°C 42% 1.0 mph S1.6 kmh S 2.0 mph3.2 kmh 29.78 in1008.5 mb 0.00 in0.0 mm 0.00 in0.0 mm 0.00 in0.0 mm
12:10 AM 78.3°F25.7°C 54.0°F12.2°C 43% 1.0 mph S1.6 kmh S 3.0 mph4.8 kmh 29.78 in1008.5 mb 0.00 in0.0 mm 0.00 in0.0 mm 0.00 in0.0 mm
12:15 AM 78.0°F25.6°C 53.7°F12.1°C 43% 1.0 mph S1.6 kmh S 3.0 mph4.8 kmh 29.78 in1008.5 mb 0.00 in0.0 mm 0.00 in0.0 mm 0.00 in0.0 mm
12:20 AM 77.8°F25.4°C 54.1°F12.3°C 44% 1.0 mph S1.6 kmh S 2.0 mph3.2 kmh 29.77 in1008.1 mb 0.00 in0.0 mm 0.00 in0.0 mm 0.00 in0.0 mm
12:25 AM 77.4°F25.2°C 53.8°F12.1°C 44% 1.0 mph S1.6 kmh S 2.0 mph3.2 kmh 29.77 in1008.1 mb 0.00 in0.0 mm 0.00 in0.0 mm 0.00 in0.0 mm
12:30 AM 77.1°F25.1°C 54.1°F12.3°C 45% 1.0 mph S1.6 kmh S 2.0 mph3.2 kmh 29.77 in1008.1 mb 0.00 in0.0 mm 0.00 in0.0 mm 0.00 in0.0 mm
12:35 AM 76.9°F24.9°C 54.5°F12.5°C 46% 1.0 mph S1.6 kmh S 2.0 mph3.2 kmh 29.77 in1008.1 mb 0.00 in0.0 mm 0.00 in0.0 mm 0.00 in0.0 mm
12:40 AM 76.6°F24.8°C 54.3°F12.4°C 46% 1.0 mph S1.6 kmh S 2.0 mph3.2 kmh 29.78 in1008.5 mb 0.00 in0.0 mm 0.00 in0.0 mm 0.00 in0.0 mm
12:45 AM 76.4°F24.7°C 54.1°F12.3°C 46% 1.0 mph SSE1.6 kmh SSE 5.0 mph8.0 kmh 29.78 in1008.5 mb 0.00 in0.0 mm 0.00 in0.0 mm 0.00 in0.0 mm
12:50 AM 76.4°F24.7°C 53.5°F11.9°C 45% 3.0 mph S4.8 kmh S 6.0 mph9.7 kmh 29.78 in1008.5 mb 0.00 in0.0 mm 0.00 in0.0 mm 0.00 in0.0 mm
12:55 AM 76.6°F24.8°C 53.7°F12.1°C 45% 3.0 mph S4.8 kmh S 6.0 mph9.7 kmh 29.78 in1008.5 mb 0.00 in0.0 mm 0.00 in0.0 mm 0.00 in0.0 mm
01:00 AM 76.7°F24.8°C 53.8°F12.1°C 45% 3.0 mph S4.8 kmh S 6.0 mph9.7 kmh 29.78 in1008.5 mb 0.00 in0.0 mm 0.00 in0.0 mm 0.00 in0.0 mm
01:05 AM 76.9°F24.9°C 53.3°F11.8°C 44% 2.0 mph SSE3.2 kmh SSE 7.0 mph11.3 kmh 29.78 in1008.5 mb 0.00 in0.0 mm 0.00 in0.0 mm 0.00 in0.0 mm
01:10 AM 77.1°F25.1°C 53.5°F11.9°C 44% 3.0 mph SSE4.8 kmh SSE 7.0 mph11.3 kmh 29.78 in1008.5 mb 0.00 in0.0 mm 0.00 in0.0 mm 0.00 in0.0 mm
01:15 AM 77.1°F25.1°C 53.5°F11.9°C 44% 3.0 mph S4.8 kmh S 5.0 mph8.0 kmh 29.78 in1008.5 mb 0.00 in0.0 mm 0.00 in0.0 mm 0.00 in0.0 mm
01:20 AM 77.2°F25.1°C 54.2°F12.3°C 45% 3.0 mph S4.8 kmh S 5.0 mph8.0 kmh 29.78 in1008.5 mb 0.00 in0.0 mm 0.00 in0.0 mm 0.00 in0.0 mm
01:25 AM 77.2°F25.1°C 54.2°F12.3°C 45% 2.0 mph S3.2 kmh S 4.0 mph6.4 kmh 29.78 in1008.5 mb 0.00 in0.0 mm 0.00 in0.0 mm 0.00 in0.0 mm
01:30 AM 77.2°F25.1°C 54.2°F12.3°C 45% 2.0 mph S3.2 kmh S 4.0 mph6.4 kmh 29.78 in1008.5 mb 0.00 in0.0 mm 0.00 in0.0 mm 0.00 in0.0 mm
01:35 AM 77.2°F25.1°C 54.2°F12.3°C 45% 1.0 mph S1.6 kmh S 4.0 mph6.4 kmh 29.78 in1008.5 mb 0.00 in0.0 mm 0.00 in0.0 mm 0.00 in0.0 mm
01:40 AM 77.2°F25.1°C 54.2°F12.3°C 45% 1.0 mph S1.6 kmh S 3.0 mph4.8 kmh 29.78 in1008.5 mb 0.00 in0.0 mm 0.00 in0.0 mm 0.00 in0.0 mm
01:45 AM 77.0°F25.0°C 54.0°F12.2°C 45% 1.0 mph S1.6 kmh S 3.0 mph4.8 kmh 29.78 in1008.5 mb 0.00 in0.0 mm 0.00 in0.0 mm 0.00 in0.0 mm
01:50 AM 76.8°F24.9°C 54.5°F12.5°C 46% 1.0 mph S1.6 kmh S 3.0 mph4.8 kmh 29.78 in1008.5 mb 0.00 in0.0 mm 0.00 in0.0 mm 0.00 in0.0 mm
01:55 AM 76.4°F24.7°C 54.7°F12.6°C 47% 1.0 mph S1.6 kmh S 3.0 mph4.8 kmh 29.78 in1008.5 mb 0.00 in0.0 mm 0.00 in0.0 mm 0.00 in0.0 mm
02:00 AM 76.0°F24.4°C 54.3°F12.4°C 47% 1.0 mph S1.6 kmh S 2.0 mph3.2 kmh 29.78 in1008.5 mb 0.00 in0.0 mm 0.00 in0.0 mm 0.00 in0.0 mm
02:05 AM 75.5°F24.2°C 54.4°F12.4°C 48% 1.0 mph S1.6 kmh S 3.0 mph4.8 kmh 29.78 in1008.5 mb 0.00 in0.0 mm 0.00 in0.0 mm 0.00 in0.0 mm
02:10 AM 75.1°F23.9°C 54.6°F12.6°C 49% 1.0 mph S1.6 kmh S 3.0 mph4.8 kmh 29.78 in1008.5 mb 0.00 in0.0 mm 0.00 in0.0 mm 0.00 in0.0 mm
02:15 AM 74.7°F23.7°C 54.8°F12.7°C 50% 1.0 mph S1.6 kmh S 2.0 mph3.2 kmh 29.79 in1008.8 mb 0.00 in0.0 mm 0.00 in0.0 mm 0.00 in0.0 mm
02:20 AM 74.5°F23.6°C 54.6°F12.6°C 50% 1.0 mph S1.6 kmh S 2.0 mph3.2 kmh 29.78 in1008.5 mb 0.00 in0.0 mm 0.00 in0.0 mm 0.00 in0.0 mm
02:25 AM 74.3°F23.5°C 55.0°F12.8°C 51% 1.0 mph S1.6 kmh S 2.0 mph3.2 kmh 29.78 in1008.5 mb 0.00 in0.0 mm 0.00 in0.0 mm 0.00 in0.0 mm
02:30 AM 74.1°F23.4°C 54.8°F12.7°C 51% 1.0 mph S1.6 kmh S 2.0 mph3.2 kmh 29.78 in1008.5 mb 0.00 in0.0 mm 0.00 in0.0 mm 0.00 in0.0 mm
02:35 AM 73.9°F23.3°C 54.6°F12.6°C 51% 1.0 mph S1.6 kmh S 2.0 mph3.2 kmh 29.78 in1008.5 mb 0.00 in0.0 mm 0.00 in0.0 mm 0.00 in0.0 mm
02:40 AM 73.8°F23.2°C 55.1°F12.8°C 52% Calm Calm 2.0 mph3.2 kmh 29.78 in1008.5 mb 0.00 in0.0 mm 0.00 in0.0 mm 0.00 in0.0 mm
02:45 AM 73.6°F23.1°C 54.9°F12.7°C 52% 1.0 mph S1.6 kmh S 2.0 mph3.2 kmh 29.78 in1008.5 mb 0.00 in0.0 mm 0.00 in0.0 mm 0.00 in0.0 mm
02:50 AM 73.4°F23.0°C 54.7°F12.6°C 52% 2.0 mph S3.2 kmh S 3.0 mph4.8 kmh 29.78 in1008.5 mb 0.00 in0.0 mm 0.00 in0.0 mm 0.00 in0.0 mm
02:55 AM 73.3°F22.9°C 55.1°F12.8°C 53% 2.0 mph S3.2 kmh S 3.0 mph4.8 kmh 29.79 in1008.8 mb 0.00 in0.0 mm 0.00 in0.0 mm 0.00 in0.0 mm
03:00 AM 73.3°F22.9°C 54.6°F12.6°C 52% 1.0 mph S1.6 kmh S 3.0 mph4.8 kmh 29.78 in1008.5 mb 0.00 in0.0 mm 0.00 in0.0 mm 0.00 in0.0 mm
03:05 AM 73.2°F22.9°C 55.0°F12.8°C 53% 1.0 mph S1.6 kmh S 2.0 mph3.2 kmh 29.79 in1008.8 mb 0.00 in0.0 mm 0.00 in0.0 mm 0.00 in0.0 mm
03:10 AM 73.0°F22.8°C 54.3°F12.4°C 52% 1.0 mph S1.6 kmh S 3.0 mph4.8 kmh 29.79 in1008.8 mb 0.00 in0.0 mm 0.00 in0.0 mm 0.00 in0.0 mm
03:15 AM 72.9°F22.7°C 53.7°F12.1°C 51% 2.0 mph S3.2 kmh S 3.0 mph4.8 kmh 29.79 in1008.8 mb 0.00 in0.0 mm 0.00 in0.0 mm 0.00 in0.0 mm
03:20 AM 72.9°F22.7°C 53.7°F12.1°C 51% 1.0 mph S1.6 kmh S 3.0 mph4.8 kmh 29.79 in1008.8 mb 0.00 in0.0 mm 0.00 in0.0 mm 0.00 in0.0 mm
03:25 AM 72.9°F22.7°C 53.7°F12.1°C 51% 1.0 mph S1.6 kmh S 3.0 mph4.8 kmh 29.79 in1008.8 mb 0.00 in0.0 mm 0.00 in0.0 mm 0.00 in0.0 mm
03:30 AM 72.9°F22.7°C 53.7°F12.1°C 51% 1.0 mph S1.6 kmh S 3.0 mph4.8 kmh 29.78 in1008.5 mb 0.00 in0.0 mm 0.00 in0.0 mm 0.00 in0.0 mm
03:35 AM 72.8°F22.7°C 53.6°F12.0°C 51% 1.0 mph S1.6 kmh S 2.0 mph3.2 kmh 29.78 in1008.5 mb 0.00 in0.0 mm 0.00 in0.0 mm 0.00 in0.0 mm
03:40 AM 72.8°F22.7°C 53.6°F12.0°C 51% 1.0 mph S1.6 kmh S 2.0 mph3.2 kmh 29.78 in1008.5 mb 0.00 in0.0 mm 0.00 in0.0 mm 0.00 in0.0 mm
03:45 AM 72.7°F22.6°C 53.5°F11.9°C 51% 1.0 mph S1.6 kmh S 2.0 mph3.2 kmh 29.79 in1008.8 mb 0.00 in0.0 mm 0.00 in0.0 mm 0.00 in0.0 mm
03:50 AM 72.6°F22.6°C 53.4°F11.9°C 51% 1.0 mph S1.6 kmh S 3.0 mph4.8 kmh 29.79 in1008.8 mb 0.00 in0.0 mm 0.00 in0.0 mm 0.00 in0.0 mm
03:55 AM 72.5°F22.5°C 53.3°F11.8°C 51% 1.0 mph S1.6 kmh S 3.0 mph4.8 kmh 29.79 in1008.8 mb 0.00 in0.0 mm 0.00 in0.0 mm 0.00 in0.0 mm
04:00 AM 72.4°F22.4°C 53.2°F11.8°C 51% 1.0 mph S1.6 kmh S 3.0 mph4.8 kmh 29.79 in1008.8 mb 0.00 in0.0 mm 0.00 in0.0 mm 0.00 in0.0 mm
04:05 AM 72.4°F22.4°C 53.2°F11.8°C 51% 1.0 mph S1.6 kmh S 3.0 mph4.8 kmh 29.79 in1008.8 mb 0.00 in0.0 mm 0.00 in0.0 mm 0.00 in0.0 mm
04:10 AM 72.3°F22.4°C 53.2°F11.8°C 51% 1.0 mph S1.6 kmh S 3.0 mph4.8 kmh 29.79 in1008.8 mb 0.00 in0.0 mm 0.00 in0.0 mm 0.00 in0.0 mm
04:15 AM 72.3°F22.4°C 53.2°F11.8°C 51% 1.0 mph S1.6 kmh S 3.0 mph4.8 kmh 29.79 in1008.8 mb 0.00 in0.0 mm 0.00 in0.0 mm 0.00 in0.0 mm
04:20 AM 72.3°F22.4°C 53.2°F11.8°C 51% 1.0 mph S1.6 kmh S 3.0 mph4.8 kmh 29.79 in1008.8 mb 0.00 in0.0 mm 0.00 in0.0 mm 0.00 in0.0 mm
04:25 AM 72.2°F22.3°C 53.1°F11.7°C 51% Calm Calm 1.0 mph1.6 kmh 29.79 in1008.8 mb 0.00 in0.0 mm 0.00 in0.0 mm 0.00 in0.0 mm
04:30 AM 72.1°F22.3°C 53.5°F11.9°C 52% Calm Calm 2.0 mph3.2 kmh 29.79 in1008.8 mb 0.00 in0.0 mm 0.00 in0.0 mm 0.00 in0.0 mm
04:35 AM 71.9°F22.2°C 53.3°F11.8°C 52% 1.0 mph S1.6 kmh S 3.0 mph4.8 kmh 29.79 in1008.8 mb 0.00 in0.0 mm 0.00 in0.0 mm 0.00 in0.0 mm
04:40 AM 71.7°F22.1°C 53.1°F11.7°C 52% 2.0 mph SE3.2 kmh SE 5.0 mph8.0 kmh 29.79 in1008.8 mb 0.00 in0.0 mm 0.00 in0.0 mm 0.00 in0.0 mm
04:45 AM 71.7°F22.1°C 53.1°F11.7°C 52% 2.0 mph SE3.2 kmh SE 5.0 mph8.0 kmh 29.79 in1008.8 mb 0.00 in0.0 mm 0.00 in0.0 mm 0.00 in0.0 mm
04:50 AM 71.7°F22.1°C 52.6°F11.4°C 51% 2.0 mph E3.2 kmh E 4.0 mph6.4 kmh 29.79 in1008.8 mb 0.00 in0.0 mm 0.00 in0.0 mm 0.00 in0.0 mm
04:55 AM 71.8°F22.1°C 52.7°F11.5°C 51% 2.0 mph ENE3.2 kmh ENE 3.0 mph4.8 kmh 29.79 in1008.8 mb 0.00 in0.0 mm 0.00 in0.0 mm 0.00 in0.0 mm
05:00 AM 71.9°F22.2°C 52.8°F11.6°C 51% 2.0 mph ENE3.2 kmh ENE 3.0 mph4.8 kmh 29.79 in1008.8 mb 0.00 in0.0 mm 0.00 in0.0 mm 0.00 in0.0 mm
05:05 AM 72.0°F22.2°C 52.9°F11.6°C 51% 2.0 mph ENE3.2 kmh ENE 3.0 mph4.8 kmh 29.79 in1008.8 mb 0.00 in0.0 mm 0.00 in0.0 mm 0.00 in0.0 mm
05:10 AM 72.0°F22.2°C 52.9°F11.6°C 51% 1.0 mph ENE1.6 kmh ENE 2.0 mph3.2 kmh 29.80 in1009.1 mb 0.00 in0.0 mm 0.00 in0.0 mm 0.00 in0.0 mm
05:15 AM 71.9°F22.2°C 52.8°F11.6°C 51% 1.0 mph ENE1.6 kmh ENE 3.0 mph4.8 kmh 29.80 in1009.1 mb 0.00 in0.0 mm 0.00 in0.0 mm 0.00 in0.0 mm
05:20 AM 72.0°F22.2°C 53.4°F11.9°C 52% 2.0 mph ENE3.2 kmh ENE 3.0 mph4.8 kmh 29.80 in1009.1 mb 0.00 in0.0 mm 0.00 in0.0 mm 0.00 in0.0 mm
05:25 AM 72.0°F22.2°C 52.9°F11.6°C 51% 2.0 mph ENE3.2 kmh ENE 4.0 mph6.4 kmh 29.80 in1009.1 mb 0.00 in0.0 mm 0.00 in0.0 mm 0.00 in0.0 mm
05:30 AM 72.1°F22.3°C 53.0°F11.7°C 51% 2.0 mph ENE3.2 kmh ENE 4.0 mph6.4 kmh 29.80 in1009.1 mb 0.00 in0.0 mm 0.00 in0.0 mm 0.00 in0.0 mm
05:35 AM 72.1°F22.3°C 53.0°F11.7°C 51% 2.0 mph ENE3.2 kmh ENE 4.0 mph6.4 kmh 29.80 in1009.1 mb 0.00 in0.0 mm 0.00 in0.0 mm 0.00 in0.0 mm
05:40 AM 72.0°F22.2°C 52.9°F11.6°C 51% 2.0 mph NE3.2 kmh NE 6.0 mph9.7 kmh 29.81 in1009.5 mb 0.00 in0.0 mm 0.00 in0.0 mm 0.00 in0.0 mm
05:45 AM 72.0°F22.2°C 52.9°F11.6°C 51% 2.0 mph WSW3.2 kmh WSW 6.0 mph9.7 kmh 29.81 in1009.5 mb 0.00 in0.0 mm 0.00 in0.0 mm 0.00 in0.0 mm
05:50 AM 72.1°F22.3°C 53.0°F11.7°C 51% 2.0 mph SW3.2 kmh SW 4.0 mph6.4 kmh 29.81 in1009.5 mb 0.00 in0.0 mm 0.00 in0.0 mm 0.00 in0.0 mm
05:55 AM 72.1°F22.3°C 53.5°F11.9°C 52% 1.0 mph SW1.6 kmh SW 3.0 mph4.8 kmh 29.81 in1009.5 mb 0.00 in0.0 mm 0.00 in0.0 mm 0.00 in0.0 mm
06:00 AM 72.0°F22.2°C 53.4°F11.9°C 52% 1.0 mph SW1.6 kmh SW 2.0 mph3.2 kmh 29.82 in1009.8 mb 0.00 in0.0 mm 0.00 in0.0 mm 0.00 in0.0 mm
06:05 AM 72.0°F22.2°C 53.9°F12.2°C 53% 1.0 mph SW1.6 kmh SW 2.0 mph3.2 kmh 29.82 in1009.8 mb 0.00 in0.0 mm 0.00 in0.0 mm 0.00 in0.0 mm
06:10 AM 71.9°F22.2°C 53.8°F12.1°C 53% 1.0 mph SW1.6 kmh SW 2.0 mph3.2 kmh 29.82 in1009.8 mb 0.00 in0.0 mm 0.00 in0.0 mm 0.00 in0.0 mm
06:15 AM 71.8°F22.1°C 54.3°F12.4°C 54% 1.0 mph SW1.6 kmh SW 2.0 mph3.2 kmh 29.82 in1009.8 mb 0.00 in0.0 mm 0.00 in0.0 mm 0.00 in0.0 mm
06:20 AM 71.7°F22.1°C 54.2°F12.3°C 54% 1.0 mph SW1.6 kmh SW 2.0 mph3.2 kmh 29.82 in1009.8 mb 0.00 in0.0 mm 0.00 in0.0 mm 0.00 in0.0 mm
06:25 AM 71.6°F22.0°C 54.1°F12.3°C 54% 1.0 mph SW1.6 kmh SW 3.0 mph4.8 kmh 29.82 in1009.8 mb 0.00 in0.0 mm 0.00 in0.0 mm 0.00 in0.0 mm
06:30 AM 71.5°F21.9°C 53.5°F11.9°C 53% 1.0 mph SW1.6 kmh SW 3.0 mph4.8 kmh 29.82 in1009.8 mb 0.00 in0.0 mm 0.00 in0.0 mm 0.00 in0.0 mm
06:35 AM 71.6°F22.0°C 53.6°F12.0°C 53% 1.0 mph SW1.6 kmh SW 2.0 mph3.2 kmh 29.82 in1009.8 mb 0.00 in0.0 mm 0.00 in0.0 mm 0.00 in0.0 mm
06:40 AM 71.8°F22.1°C 53.2°F11.8°C 52% 1.0 mph SW1.6 kmh SW 3.0 mph4.8 kmh 29.82 in1009.8 mb 0.00 in0.0 mm 0.00 in0.0 mm 0.00 in0.0 mm
06:45 AM 72.1°F22.3°C 53.0°F11.7°C 51% 1.0 mph SW1.6 kmh SW 3.0 mph4.8 kmh 29.82 in1009.8 mb 0.00 in0.0 mm 0.00 in0.0 mm 0.00 in0.0 mm
06:50 AM 72.4°F22.4°C 53.2°F11.8°C 51% 1.0 mph SW1.6 kmh SW 2.0 mph3.2 kmh 29.82 in1009.8 mb 0.00 in0.0 mm 0.00 in0.0 mm 0.00 in0.0 mm
06:55 AM 72.9°F22.7°C 53.7°F12.1°C 51% 1.0 mph SW1.6 kmh SW 2.0 mph3.2 kmh 29.82 in1009.8 mb 0.00 in0.0 mm 0.00 in0.0 mm 0.00 in0.0 mm
07:00 AM 73.4°F23.0°C 53.6°F12.0°C 50% 1.0 mph SW1.6 kmh SW 2.0 mph3.2 kmh 29.82 in1009.8 mb 0.00 in0.0 mm 0.00 in0.0 mm 0.00 in0.0 mm
07:05 AM 73.9°F23.3°C 54.1°F12.3°C 50% 1.0 mph SW1.6 kmh SW 2.0 mph3.2 kmh 29.82 in1009.8 mb 0.00 in0.0 mm 0.00 in0.0 mm 0.00 in0.0 mm
07:10 AM 74.5°F23.6°C 54.1°F12.3°C 49% 1.0 mph SW1.6 kmh SW 3.0 mph4.8 kmh 29.83 in1010.2 mb 0.00 in0.0 mm 0.00 in0.0 mm 0.00 in0.0 mm
07:15 AM 75.3°F24.1°C 54.3°F12.4°C 48% 1.0 mph SW1.6 kmh SW 3.0 mph4.8 kmh 29.82 in1009.8 mb 0.00 in0.0 mm 0.00 in0.0 mm 0.00 in0.0 mm
07:20 AM 76.1°F24.5°C 53.8°F12.1°C 46% 2.0 mph SSW3.2 kmh SSW 3.0 mph4.8 kmh 29.82 in1009.8 mb 0.00 in0.0 mm 0.00 in0.0 mm 0.00 in0.0 mm
07:25 AM 76.7°F24.8°C 54.4°F12.4°C 46% 2.0 mph SE3.2 kmh SE 3.0 mph4.8 kmh 29.82 in1009.8 mb 0.00 in0.0 mm 0.00 in0.0 mm 0.00 in0.0 mm
07:30 AM 77.4°F25.2°C 55.0°F12.8°C 46% 2.0 mph ESE3.2 kmh ESE 3.0 mph4.8 kmh 29.82 in1009.8 mb 0.00 in0.0 mm 0.00 in0.0 mm 0.00 in0.0 mm
07:35 AM 78.0°F25.6°C 55.5°F13.1°C 46% 2.0 mph ESE3.2 kmh ESE 4.0 mph6.4 kmh 29.82 in1009.8 mb 0.00 in0.0 mm 0.00 in0.0 mm 0.00 in0.0 mm
07:40 AM 78.5°F25.8°C 56.0°F13.3°C 46% 2.0 mph ESE3.2 kmh ESE 4.0 mph6.4 kmh 29.82 in1009.8 mb 0.00 in0.0 mm 0.00 in0.0 mm 0.00 in0.0 mm
07:45 AM 79.2°F26.2°C 56.6°F13.7°C 46% 1.0 mph ESE1.6 kmh ESE 3.0 mph4.8 kmh 29.82 in1009.8 mb 0.00 in0.0 mm 0.00 in0.0 mm 0.00 in0.0 mm
07:50 AM 79.8°F26.6°C 57.2°F14.0°C 46% 1.0 mph ESE1.6 kmh ESE 2.0 mph3.2 kmh 29.82 in1009.8 mb 0.00 in0.0 mm 0.00 in0.0 mm 0.00 in0.0 mm
07:55 AM 80.4°F26.9°C 57.7°F14.3°C 46% Calm Calm 2.0 mph3.2 kmh 29.83 in1010.2 mb 0.00 in0.0 mm 0.00 in0.0 mm 0.00 in0.0 mm
08:00 AM 81.1°F27.3°C 58.4°F14.7°C 46% Calm Calm 2.0 mph3.2 kmh 29.82 in1009.8 mb 0.00 in0.0 mm 0.00 in0.0 mm 0.00 in0.0 mm
08:05 AM 81.9°F27.7°C 59.1°F15.1°C 46% 1.0 mph ESE1.6 kmh ESE 2.0 mph3.2 kmh 29.83 in1010.2 mb 0.00 in0.0 mm 0.00 in0.0 mm 0.00 in0.0 mm
08:10 AM 82.8°F28.2°C 59.3°F15.2°C 45% 1.0 mph ESE1.6 kmh ESE 2.0 mph3.2 kmh 29.83 in1010.2 mb 0.00 in0.0 mm 0.00 in0.0 mm 0.00 in0.0 mm
08:15 AM 83.6°F28.7°C 59.4°F15.2°C 44% 1.0 mph ESE1.6 kmh ESE 2.0 mph3.2 kmh 29.83 in1010.2 mb 0.00 in0.0 mm 0.00 in0.0 mm 0.00 in0.0 mm
08:20 AM 84.3°F29.1°C 59.4°F15.2°C 43% 1.0 mph SE1.6 kmh SE 4.0 mph6.4 kmh 29.83 in1010.2 mb 0.00 in0.0 mm 0.00 in0.0 mm 0.00 in0.0 mm
08:25 AM 84.5°F29.2°C 59.5°F15.3°C 43% 2.0 mph SW3.2 kmh SW 4.0 mph6.4 kmh 29.83 in1010.2 mb 0.00 in0.0 mm 0.00 in0.0 mm 0.00 in0.0 mm
08:30 AM 84.8°F29.3°C 59.2°F15.1°C 42% 2.0 mph SW3.2 kmh SW 5.0 mph8.0 kmh 29.83 in1010.2 mb 0.00 in0.0 mm 0.00 in0.0 mm 0.00 in0.0 mm
08:35 AM 85.1°F29.5°C 58.8°F14.9°C 41% 3.0 mph SW4.8 kmh SW 5.0 mph8.0 kmh 29.83 in1010.2 mb 0.00 in0.0 mm 0.00 in0.0 mm 0.00 in0.0 mm
08:40 AM 85.0°F29.4°C 59.3°F15.2°C 42% 3.0 mph SW4.8 kmh SW 5.0 mph8.0 kmh 29.83 in1010.2 mb 0.00 in0.0 mm 0.00 in0.0 mm 0.00 in0.0 mm
08:45 AM 85.4°F29.7°C 59.0°F15.0°C 41% 3.0 mph SSW4.8 kmh SSW 6.0 mph9.7 kmh 29.83 in1010.2 mb 0.00 in0.0 mm 0.00 in0.0 mm 0.00 in0.0 mm
08:50 AM 85.7°F29.8°C 58.6°F14.8°C 40% 3.0 mph SSW4.8 kmh SSW 6.0 mph9.7 kmh 29.83 in1010.2 mb 0.00 in0.0 mm 0.00 in0.0 mm 0.00 in0.0 mm
08:55 AM 86.1°F30.1°C 58.2°F14.6°C 39% 2.0 mph SW3.2 kmh SW 6.0 mph9.7 kmh 29.83 in1010.2 mb 0.00 in0.0 mm 0.00 in0.0 mm 0.00 in0.0 mm
09:00 AM 86.5°F30.3°C 58.6°F14.8°C 39% 2.0 mph SW3.2 kmh SW 5.0 mph8.0 kmh 29.83 in1010.2 mb 0.00 in0.0 mm 0.00 in0.0 mm 0.00 in0.0 mm
09:05 AM 86.7°F30.4°C 58.1°F14.5°C 38% 2.0 mph SW3.2 kmh SW 4.0 mph6.4 kmh 29.83 in1010.2 mb 0.00 in0.0 mm 0.00 in0.0 mm 0.00 in0.0 mm
09:10 AM 86.9°F30.5°C 58.2°F14.6°C 38% 2.0 mph WSW3.2 kmh WSW 4.0 mph6.4 kmh 29.83 in1010.2 mb 0.00 in0.0 mm 0.00 in0.0 mm 0.00 in0.0 mm
09:15 AM 86.9°F30.5°C 57.5°F14.2°C 37% 2.0 mph WSW3.2 kmh WSW 4.0 mph6.4 kmh 29.83 in1010.2 mb 0.00 in0.0 mm 0.00 in0.0 mm 0.00 in0.0 mm
09:20 AM 87.1°F30.6°C 57.7°F14.3°C 37% 3.0 mph WSW4.8 kmh WSW 7.0 mph11.3 kmh 29.83 in1010.2 mb 0.00 in0.0 mm 0.00 in0.0 mm 0.00 in0.0 mm
09:25 AM 87.3°F30.7°C 57.1°F13.9°C 36% 3.0 mph WSW4.8 kmh WSW 7.0 mph11.3 kmh 29.83 in1010.2 mb 0.00 in0.0 mm 0.00 in0.0 mm 0.00 in0.0 mm
09:30 AM 87.3°F30.7°C 57.1°F13.9°C 36% 2.0 mph WSW3.2 kmh WSW 6.0 mph9.7 kmh 29.83 in1010.2 mb 0.00 in0.0 mm 0.00 in0.0 mm 0.00 in0.0 mm
09:35 AM 87.8°F31.0°C 56.7°F13.7°C 35% 3.0 mph WSW4.8 kmh WSW 6.0 mph9.7 kmh 29.83 in1010.2 mb 0.00 in0.0 mm 0.00 in0.0 mm 0.00 in0.0 mm
09:40 AM 88.5°F31.4°C 56.6°F13.7°C 34% 3.0 mph SSW4.8 kmh SSW 6.0 mph9.7 kmh 29.83 in1010.2 mb 0.00 in0.0 mm 0.00 in0.0 mm 0.00 in0.0 mm
09:45 AM 89.1°F31.7°C 56.2°F13.4°C 33% 3.0 mph SSW4.8 kmh SSW 6.0 mph9.7 kmh 29.83 in1010.2 mb 0.00 in0.0 mm 0.00 in0.0 mm 0.00 in0.0 mm
09:50 AM 89.4°F31.9°C 55.7°F13.2°C 32% 2.0 mph SW3.2 kmh SW 6.0 mph9.7 kmh 29.84 in1010.5 mb 0.00 in0.0 mm 0.00 in0.0 mm 0.00 in0.0 mm
09:55 AM 89.4°F31.9°C 55.7°F13.2°C 32% 2.0 mph WSW3.2 kmh WSW 6.0 mph9.7 kmh 29.84 in1010.5 mb 0.00 in0.0 mm 0.00 in0.0 mm 0.00 in0.0 mm
10:00 AM 89.8°F32.1°C 55.1°F12.8°C 31% 2.0 mph WSW3.2 kmh WSW 4.0 mph6.4 kmh 29.84 in1010.5 mb 0.00 in0.0 mm 0.00 in0.0 mm 0.00 in0.0 mm
10:05 AM 90.0°F32.2°C 54.4°F12.4°C 30% 2.0 mph W3.2 kmh W 7.0 mph11.3 kmh 29.84 in1010.5 mb 0.00 in0.0 mm 0.00 in0.0 mm 0.00 in0.0 mm
10:10 AM 90.0°F32.2°C 55.3°F12.9°C 31% 2.0 mph W3.2 kmh W 7.0 mph11.3 kmh 29.84 in1010.5 mb 0.00 in0.0 mm 0.00 in0.0 mm 0.00 in0.0 mm
10:15 AM 90.3°F32.4°C 54.7°F12.6°C 30% 2.0 mph W3.2 kmh W 5.0 mph8.0 kmh 29.84 in1010.5 mb 0.00 in0.0 mm 0.00 in0.0 mm 0.00 in0.0 mm
10:20 AM 90.7°F32.6°C 55.0°F12.8°C 30% 2.0 mph W3.2 kmh W 7.0 mph11.3 kmh 29.84 in1010.5 mb 0.00 in0.0 mm 0.00 in0.0 mm 0.00 in0.0 mm
10:25 AM 90.9°F32.7°C 55.2°F12.9°C 30% 3.0 mph WSW4.8 kmh WSW 7.0 mph11.3 kmh 29.84 in1010.5 mb 0.00 in0.0 mm 0.00 in0.0 mm 0.00 in0.0 mm
10:30 AM 91.4°F33.0°C 54.7°F12.6°C 29% 2.0 mph WSW3.2 kmh WSW 6.0 mph9.7 kmh 29.84 in1010.5 mb 0.00 in0.0 mm 0.00 in0.0 mm 0.00 in0.0 mm
10:35 AM 91.8°F33.2°C 54.1°F12.3°C 28% 2.0 mph W3.2 kmh W 5.0 mph8.0 kmh 29.83 in1010.2 mb 0.00 in0.0 mm 0.00 in0.0 mm 0.00 in0.0 mm
10:40 AM 92.2°F33.4°C 52.4°F11.3°C 26% 3.0 mph WNW4.8 kmh WNW 5.0 mph8.0 kmh 29.83 in1010.2 mb 0.00 in0.0 mm 0.00 in0.0 mm 0.00 in0.0 mm
10:45 AM 91.9°F33.3°C 53.1°F11.7°C 27% 3.0 mph NW4.8 kmh NW 5.0 mph8.0 kmh 29.83 in1010.2 mb 0.00 in0.0 mm 0.00 in0.0 mm 0.00 in0.0 mm
10:50 AM 92.1°F33.4°C 52.3°F11.3°C 26% 3.0 mph W4.8 kmh W 6.0 mph9.7 kmh 29.83 in1010.2 mb 0.00 in0.0 mm 0.00 in0.0 mm 0.00 in0.0 mm
10:55 AM 92.7°F33.7°C 52.8°F11.6°C 26% 3.0 mph WSW4.8 kmh WSW 6.0 mph9.7 kmh 29.83 in1010.2 mb 0.00 in0.0 mm 0.00 in0.0 mm 0.00 in0.0 mm
11:00 AM 93.0°F33.9°C 52.0°F11.1°C 25% 3.0 mph NW4.8 kmh NW 8.0 mph12.9 kmh 29.82 in1009.8 mb 0.00 in0.0 mm 0.00 in0.0 mm 0.00 in0.0 mm
11:05 AM 93.3°F34.1°C 53.3°F11.8°C 26% 3.0 mph WNW4.8 kmh WNW 8.0 mph12.9 kmh 29.82 in1009.8 mb 0.00 in0.0 mm 0.00 in0.0 mm 0.00 in0.0 mm
11:10 AM 94.2°F34.6°C 53.0°F11.7°C 25% 2.0 mph WSW3.2 kmh WSW 6.0 mph9.7 kmh 29.82 in1009.8 mb 0.00 in0.0 mm 0.00 in0.0 mm 0.00 in0.0 mm
11:15 AM 94.6°F34.8°C 53.3°F11.8°C 25% 2.0 mph WSW3.2 kmh WSW 7.0 mph11.3 kmh 29.82 in1009.8 mb 0.00 in0.0 mm 0.00 in0.0 mm 0.00 in0.0 mm
11:20 AM 94.9°F34.9°C 52.5°F11.4°C 24% 3.0 mph SW4.8 kmh SW 7.0 mph11.3 kmh 29.82 in1009.8 mb 0.00 in0.0 mm 0.00 in0.0 mm 0.00 in0.0 mm
11:25 AM 95.2°F35.1°C 51.6°F10.9°C 23% 3.0 mph SW4.8 kmh SW 7.0 mph11.3 kmh 29.82 in1009.8 mb 0.00 in0.0 mm 0.00 in0.0 mm 0.00 in0.0 mm
11:30 AM 95.3°F35.2°C 50.4°F10.2°C 22% 3.0 mph SSW4.8 kmh SSW 6.0 mph9.7 kmh 29.82 in1009.8 mb 0.00 in0.0 mm 0.00 in0.0 mm 0.00 in0.0 mm
11:35 AM 95.2°F35.1°C 50.4°F10.2°C 22% 3.0 mph S4.8 kmh S 6.0 mph9.7 kmh 29.82 in1009.8 mb 0.00 in0.0 mm 0.00 in0.0 mm 0.00 in0.0 mm
11:40 AM 95.2°F35.1°C 50.4°F10.2°C 22% 2.0 mph ENE3.2 kmh ENE 4.0 mph6.4 kmh 29.82 in1009.8 mb 0.00 in0.0 mm 0.00 in0.0 mm 0.00 in0.0 mm
11:45 AM 95.0°F35.0°C 50.2°F10.1°C 22% 3.0 mph WSW4.8 kmh WSW 7.0 mph11.3 kmh 29.81 in1009.5 mb 0.00 in0.0 mm 0.00 in0.0 mm 0.00 in0.0 mm
11:50 AM 95.0°F35.0°C 50.2°F10.1°C 22% 4.0 mph SW6.4 kmh SW 7.0 mph11.3 kmh 29.81 in1009.5 mb 0.00 in0.0 mm 0.00 in0.0 mm 0.00 in0.0 mm
11:55 AM 94.5°F34.7°C 49.8°F9.9°C 22% 3.0 mph SE4.8 kmh SE 7.0 mph11.3 kmh 29.81 in1009.5 mb 0.00 in0.0 mm 0.00 in0.0 mm 0.00 in0.0 mm
12:00 PM 94.8°F34.9°C 50.0°F10.0°C 22% 2.0 mph NE3.2 kmh NE 6.0 mph9.7 kmh 29.81 in1009.5 mb 0.00 in0.0 mm 0.00 in0.0 mm 0.00 in0.0 mm
12:05 PM 95.4°F35.2°C 50.5°F10.3°C 22% 3.0 mph NW4.8 kmh NW 8.0 mph12.9 kmh 29.81 in1009.5 mb 0.00 in0.0 mm 0.00 in0.0 mm 0.00 in0.0 mm
12:10 PM 95.6°F35.3°C 49.4°F9.7°C 21% 3.0 mph W4.8 kmh W 8.0 mph12.9 kmh 29.81 in1009.5 mb 0.00 in0.0 mm 0.00 in0.0 mm 0.00 in0.0 mm
12:15 PM 95.8°F35.4°C 49.6°F9.8°C 21% 3.0 mph N4.8 kmh N 5.0 mph8.0 kmh 29.80 in1009.1 mb 0.00 in0.0 mm 0.00 in0.0 mm 0.00 in0.0 mm
12:20 PM 95.7°F35.4°C 49.5°F9.7°C 21% 3.0 mph N4.8 kmh N 7.0 mph11.3 kmh 29.80 in1009.1 mb 0.00 in0.0 mm 0.00 in0.0 mm 0.00 in0.0 mm
12:25 PM 95.8°F35.4°C 49.6°F9.8°C 21% 3.0 mph NNE4.8 kmh NNE 8.0 mph12.9 kmh 29.80 in1009.1 mb 0.00 in0.0 mm 0.00 in0.0 mm 0.00 in0.0 mm
12:30 PM 95.9°F35.5°C 49.7°F9.8°C 21% 3.0 mph N4.8 kmh N 8.0 mph12.9 kmh 29.80 in1009.1 mb 0.00 in0.0 mm 0.00 in0.0 mm 0.00 in0.0 mm
12:35 PM 96.4°F35.8°C 48.8°F9.3°C 20% 3.0 mph N4.8 kmh N 7.0 mph11.3 kmh 29.80 in1009.1 mb 0.00 in0.0 mm 0.00 in0.0 mm 0.00 in0.0 mm
12:40 PM 97.3°F36.3°C 48.2°F9.0°C 19% 3.0 mph SW4.8 kmh SW 7.0 mph11.3 kmh 29.80 in1009.1 mb 0.00 in0.0 mm 0.00 in0.0 mm 0.00 in0.0 mm
12:45 PM 97.5°F36.4°C 48.3°F9.1°C 19% 4.0 mph SW6.4 kmh SW 8.0 mph12.9 kmh 29.79 in1008.8 mb 0.00 in0.0 mm 0.00 in0.0 mm 0.00 in0.0 mm
12:50 PM 98.0°F36.7°C 48.7°F9.3°C 19% 3.0 mph SW4.8 kmh SW 8.0 mph12.9 kmh 29.80 in1009.1 mb 0.00 in0.0 mm 0.00 in0.0 mm 0.00 in0.0 mm
12:55 PM 98.5°F36.9°C 47.7°F8.7°C 18% 2.0 mph SW3.2 kmh SW 6.0 mph9.7 kmh 29.79 in1008.8 mb 0.00 in0.0 mm 0.00 in0.0 mm 0.00 in0.0 mm
01:00 PM 98.9°F37.2°C 48.0°F8.9°C 18% 2.0 mph W3.2 kmh W 6.0 mph9.7 kmh 29.79 in1008.8 mb 0.00 in0.0 mm 0.00 in0.0 mm 0.00 in0.0 mm
01:05 PM 99.5°F37.5°C 47.0°F8.3°C 17% 3.0 mph W4.8 kmh W 7.0 mph11.3 kmh 29.79 in1008.8 mb 0.00 in0.0 mm 0.00 in0.0 mm 0.00 in0.0 mm
01:10 PM 99.6°F37.6°C 48.6°F9.2°C 18% 3.0 mph WSW4.8 kmh WSW 7.0 mph11.3 kmh 29.79 in1008.8 mb 0.00 in0.0 mm 0.00 in0.0 mm 0.00 in0.0 mm
01:15 PM 100.3°F37.9°C 47.6°F8.7°C 17% 2.0 mph SW3.2 kmh SW 6.0 mph9.7 kmh 29.79 in1008.8 mb 0.00 in0.0 mm 0.00 in0.0 mm 0.00 in0.0 mm
01:20 PM 100.8°F38.2°C 48.0°F8.9°C 17% 2.0 mph SSW3.2 kmh SSW 5.0 mph8.0 kmh 29.78 in1008.5 mb 0.00 in0.0 mm 0.00 in0.0 mm 0.00 in0.0 mm
01:25 PM 101.5°F38.6°C 47.0°F8.3°C 16% 3.0 mph S4.8 kmh S 8.0 mph12.9 kmh 29.78 in1008.5 mb 0.00 in0.0 mm 0.00 in0.0 mm 0.00 in0.0 mm
01:30 PM 101.2°F38.4°C 48.3°F9.1°C 17% 3.0 mph SSE4.8 kmh SSE 8.0 mph12.9 kmh 29.78 in1008.5 mb 0.00 in0.0 mm 0.00 in0.0 mm 0.00 in0.0 mm
01:35 PM 100.7°F38.2°C 47.9°F8.8°C 17% 4.0 mph SE6.4 kmh SE 9.0 mph14.5 kmh 29.78 in1008.5 mb 0.00 in0.0 mm 0.00 in0.0 mm 0.00 in0.0 mm
01:40 PM 101.1°F38.4°C 48.3°F9.1°C 17% 3.0 mph SSE4.8 kmh SSE 9.0 mph14.5 kmh 29.78 in1008.5 mb 0.00 in0.0 mm 0.00 in0.0 mm 0.00 in0.0 mm
01:45 PM 101.7°F38.7°C 48.7°F9.3°C 17% 2.0 mph S3.2 kmh S 6.0 mph9.7 kmh 29.78 in1008.5 mb 0.00 in0.0 mm 0.00 in0.0 mm 0.00 in0.0 mm
01:50 PM 102.1°F38.9°C 47.4°F8.6°C 16% 3.0 mph W4.8 kmh W 9.0 mph14.5 kmh 29.77 in1008.1 mb 0.00 in0.0 mm 0.00 in0.0 mm 0.00 in0.0 mm
01:55 PM 101.2°F38.4°C 48.3°F9.1°C 17% 4.0 mph W6.4 kmh W 9.0 mph14.5 kmh 29.77 in1008.1 mb 0.00 in0.0 mm 0.00 in0.0 mm 0.00 in0.0 mm
02:00 PM 101.2°F38.4°C 48.3°F9.1°C 17% 3.0 mph WSW4.8 kmh WSW 8.0 mph12.9 kmh 29.77 in1008.1 mb 0.00 in0.0 mm 0.00 in0.0 mm 0.00 in0.0 mm
02:05 PM 100.6°F38.1°C 47.8°F8.8°C 17% 2.0 mph NW3.2 kmh NW 6.0 mph9.7 kmh 29.77 in1008.1 mb 0.00 in0.0 mm 0.00 in0.0 mm 0.00 in0.0 mm
02:10 PM 100.7°F38.2°C 47.9°F8.8°C 17% 2.0 mph NNW3.2 kmh NNW 6.0 mph9.7 kmh 29.77 in1008.1 mb 0.00 in0.0 mm 0.00 in0.0 mm 0.00 in0.0 mm
02:15 PM 100.7°F38.2°C 47.9°F8.8°C 17% 3.0 mph W4.8 kmh W 9.0 mph14.5 kmh 29.76 in1007.8 mb 0.00 in0.0 mm 0.00 in0.0 mm 0.00 in0.0 mm
02:20 PM 100.8°F38.2°C 48.0°F8.9°C 17% 4.0 mph W6.4 kmh W 9.0 mph14.5 kmh 29.76 in1007.8 mb 0.00 in0.0 mm 0.00 in0.0 mm 0.00 in0.0 mm
02:25 PM 101.0°F38.3°C 46.6°F8.1°C 16% 3.0 mph WNW4.8 kmh WNW 9.0 mph14.5 kmh 29.76 in1007.8 mb 0.00 in0.0 mm 0.00 in0.0 mm 0.00 in0.0 mm
02:30 PM 101.1°F38.4°C 46.6°F8.1°C 16% 3.0 mph W4.8 kmh W 9.0 mph14.5 kmh 29.76 in1007.8 mb 0.00 in0.0 mm 0.00 in0.0 mm 0.00 in0.0 mm
02:35 PM 101.0°F38.3°C 44.9°F7.2°C 15% 4.0 mph WSW6.4 kmh WSW 9.0 mph14.5 kmh 29.76 in1007.8 mb 0.00 in0.0 mm 0.00 in0.0 mm 0.00 in0.0 mm
02:40 PM 101.1°F38.4°C 43.1°F6.2°C 14% 4.0 mph WSW6.4 kmh WSW 8.0 mph12.9 kmh 29.75 in1007.5 mb 0.00 in0.0 mm 0.00 in0.0 mm 0.00 in0.0 mm
02:45 PM 101.3°F38.5°C 43.3°F6.3°C 14% 4.0 mph SW6.4 kmh SW 9.0 mph14.5 kmh 29.75 in1007.5 mb 0.00 in0.0 mm 0.00 in0.0 mm 0.00 in0.0 mm
02:50 PM 101.6°F38.7°C 43.5°F6.4°C 14% 4.0 mph SSW6.4 kmh SSW 9.0 mph14.5 kmh 29.75 in1007.5 mb 0.00 in0.0 mm 0.00 in0.0 mm 0.00 in0.0 mm
02:55 PM 101.7°F38.7°C 43.6°F6.4°C 14% 5.0 mph S8.0 kmh S 10.0 mph16.1 kmh 29.75 in1007.5 mb 0.00 in0.0 mm 0.00 in0.0 mm 0.00 in0.0 mm
03:00 PM 101.7°F38.7°C 43.6°F6.4°C 14% 4.0 mph S6.4 kmh S 10.0 mph16.1 kmh 29.74 in1007.1 mb 0.00 in0.0 mm 0.00 in0.0 mm 0.00 in0.0 mm
03:05 PM 101.7°F38.7°C 43.6°F6.4°C 14% 4.0 mph SW6.4 kmh SW 7.0 mph11.3 kmh 29.74 in1007.1 mb 0.00 in0.0 mm 0.00 in0.0 mm 0.00 in0.0 mm
03:10 PM 101.7°F38.7°C 43.6°F6.4°C 14% 4.0 mph WSW6.4 kmh WSW 8.0 mph12.9 kmh 29.74 in1007.1 mb 0.00 in0.0 mm 0.00 in0.0 mm 0.00 in0.0 mm
03:15 PM 101.0°F38.3°C 43.0°F6.1°C 14% 5.0 mph WSW8.0 kmh WSW 9.0 mph14.5 kmh 29.74 in1007.1 mb 0.00 in0.0 mm 0.00 in0.0 mm 0.00 in0.0 mm
03:20 PM 100.7°F38.2°C 42.8°F6.0°C 14% 4.0 mph W6.4 kmh W 13.0 mph20.9 kmh 29.73 in1006.8 mb 0.00 in0.0 mm 0.00 in0.0 mm 0.00 in0.0 mm
03:25 PM 100.5°F38.1°C 40.7°F4.8°C 13% 3.0 mph NW4.8 kmh NW 13.0 mph20.9 kmh 29.73 in1006.8 mb 0.00 in0.0 mm 0.00 in0.0 mm 0.00 in0.0 mm
03:30 PM 99.9°F37.7°C 42.2°F5.7°C 14% 3.0 mph NNW4.8 kmh NNW 9.0 mph14.5 kmh 29.73 in1006.8 mb 0.00 in0.0 mm 0.00 in0.0 mm 0.00 in0.0 mm
03:35 PM 100.1°F37.8°C 42.3°F5.7°C 14% 4.0 mph W6.4 kmh W 8.0 mph12.9 kmh 29.73 in1006.8 mb 0.00 in0.0 mm 0.00 in0.0 mm 0.00 in0.0 mm
03:40 PM 100.4°F38.0°C 40.7°F4.8°C 13% 4.0 mph WSW6.4 kmh WSW 9.0 mph14.5 kmh 29.72 in1006.4 mb 0.00 in0.0 mm 0.00 in0.0 mm 0.00 in0.0 mm
03:45 PM 100.5°F38.1°C 40.7°F4.8°C 13% 4.0 mph W6.4 kmh W 9.0 mph14.5 kmh 29.73 in1006.8 mb 0.00 in0.0 mm 0.00 in0.0 mm 0.00 in0.0 mm
03:50 PM 100.5°F38.1°C 42.7°F5.9°C 14% 4.0 mph WNW6.4 kmh WNW 9.0 mph14.5 kmh 29.72 in1006.4 mb 0.00 in0.0 mm 0.00 in0.0 mm 0.00 in0.0 mm
03:55 PM 100.5°F38.1°C 44.5°F6.9°C 15% 4.0 mph NW6.4 kmh NW 11.0 mph17.7 kmh 29.72 in1006.4 mb 0.00 in0.0 mm 0.00 in0.0 mm 0.00 in0.0 mm
04:00 PM 100.6°F38.1°C 42.7°F5.9°C 14% 4.0 mph WNW6.4 kmh WNW 11.0 mph17.7 kmh 29.72 in1006.4 mb 0.00 in0.0 mm 0.00 in0.0 mm 0.00 in0.0 mm
04:05 PM 100.5°F38.1°C 42.7°F5.9°C 14% 4.0 mph W6.4 kmh W 11.0 mph17.7 kmh 29.71 in1006.1 mb 0.00 in0.0 mm 0.00 in0.0 mm 0.00 in0.0 mm
04:10 PM 100.7°F38.2°C 40.9°F4.9°C 13% 3.0 mph W4.8 kmh W 11.0 mph17.7 kmh 29.71 in1006.1 mb 0.00 in0.0 mm 0.00 in0.0 mm 0.00 in0.0 mm
04:15 PM 100.9°F38.3°C 39.0°F3.9°C 12% 3.0 mph W4.8 kmh W 8.0 mph12.9 kmh 29.71 in1006.1 mb 0.00 in0.0 mm 0.00 in0.0 mm 0.00 in0.0 mm
04:20 PM 100.7°F38.2°C 38.8°F3.8°C 12% 4.0 mph NW6.4 kmh NW 10.0 mph16.1 kmh 29.71 in1006.1 mb 0.00 in0.0 mm 0.00 in0.0 mm 0.00 in0.0 mm
04:25 PM 100.1°F37.8°C 38.4°F3.6°C 12% 4.0 mph NW6.4 kmh NW 10.0 mph16.1 kmh 29.71 in1006.1 mb 0.00 in0.0 mm 0.00 in0.0 mm 0.00 in0.0 mm
04:30 PM 99.6°F37.6°C 41.9°F5.5°C 14% 5.0 mph WNW8.0 kmh WNW 11.0 mph17.7 kmh 29.71 in1006.1 mb 0.00 in0.0 mm 0.00 in0.0 mm 0.00 in0.0 mm
04:35 PM 99.4°F37.4°C 41.8°F5.4°C 14% 4.0 mph W6.4 kmh W 11.0 mph17.7 kmh 29.71 in1006.1 mb 0.00 in0.0 mm 0.00 in0.0 mm 0.00 in0.0 mm
04:40 PM 99.4°F37.4°C 41.8°F5.4°C 14% 4.0 mph W6.4 kmh W 10.0 mph16.1 kmh 29.71 in1006.1 mb 0.00 in0.0 mm 0.00 in0.0 mm 0.00 in0.0 mm
04:45 PM 99.2°F37.3°C 39.7°F4.3°C 13% 5.0 mph W8.0 kmh W 10.0 mph16.1 kmh 29.71 in1006.1 mb 0.00 in0.0 mm 0.00 in0.0 mm 0.00 in0.0 mm
04:50 PM 99.2°F37.3°C 41.6°F5.3°C 14% 4.0 mph WSW6.4 kmh WSW 11.0 mph17.7 kmh 29.70 in1005.8 mb 0.00 in0.0 mm 0.00 in0.0 mm 0.00 in0.0 mm
04:55 PM 99.1°F37.3°C 43.3°F6.3°C 15% 5.0 mph WSW8.0 kmh WSW 11.0 mph17.7 kmh 29.71 in1006.1 mb 0.00 in0.0 mm 0.00 in0.0 mm 0.00 in0.0 mm
05:00 PM 98.9°F37.2°C 43.2°F6.2°C 15% 5.0 mph W8.0 kmh W 11.0 mph17.7 kmh 29.71 in1006.1 mb 0.00 in0.0 mm 0.00 in0.0 mm 0.00 in0.0 mm
05:05 PM 98.7°F37.1°C 41.2°F5.1°C 14% 5.0 mph WSW8.0 kmh WSW 9.0 mph14.5 kmh 29.70 in1005.8 mb 0.00 in0.0 mm 0.00 in0.0 mm 0.00 in0.0 mm
05:10 PM 98.6°F37.0°C 41.2°F5.1°C 14% 4.0 mph W6.4 kmh W 9.0 mph14.5 kmh 29.70 in1005.8 mb 0.00 in0.0 mm 0.00 in0.0 mm 0.00 in0.0 mm
05:15 PM 98.6°F37.0°C 41.2°F5.1°C 14% 4.0 mph W6.4 kmh W 9.0 mph14.5 kmh 29.70 in1005.8 mb 0.00 in0.0 mm 0.00 in0.0 mm 0.00 in0.0 mm
05:20 PM 98.6°F37.0°C 41.2°F5.1°C 14% 5.0 mph WSW8.0 kmh WSW 9.0 mph14.5 kmh 29.70 in1005.8 mb 0.00 in0.0 mm 0.00 in0.0 mm 0.00 in0.0 mm
05:25 PM 98.5°F36.9°C 41.1°F5.1°C 14% 5.0 mph W8.0 kmh W 11.0 mph17.7 kmh 29.70 in1005.8 mb 0.00 in0.0 mm 0.00 in0.0 mm 0.00 in0.0 mm
05:30 PM 98.5°F36.9°C 41.1°F5.1°C 14% 4.0 mph W6.4 kmh W 11.0 mph17.7 kmh 29.70 in1005.8 mb 0.00 in0.0 mm 0.00 in0.0 mm 0.00 in0.0 mm
05:35 PM 98.4°F36.9°C 41.0°F5.0°C 14% 5.0 mph W8.0 kmh W 10.0 mph16.1 kmh 29.70 in1005.8 mb 0.00 in0.0 mm 0.00 in0.0 mm 0.00 in0.0 mm
05:40 PM 98.1°F36.7°C 40.8°F4.9°C 14% 7.0 mph W11.3 kmh W 13.0 mph20.9 kmh 29.70 in1005.8 mb 0.00 in0.0 mm 0.00 in0.0 mm 0.00 in0.0 mm
05:45 PM 97.7°F36.5°C 40.5°F4.7°C 14% 7.0 mph W11.3 kmh W 13.0 mph20.9 kmh 29.71 in1006.1 mb 0.00 in0.0 mm 0.00 in0.0 mm 0.00 in0.0 mm
05:50 PM 97.5°F36.4°C 40.3°F4.6°C 14% 6.0 mph W9.7 kmh W 13.0 mph20.9 kmh 29.70 in1005.8 mb 0.00 in0.0 mm 0.00 in0.0 mm 0.00 in0.0 mm
05:55 PM 97.4°F36.3°C 42.0°F5.6°C 15% 5.0 mph W8.0 kmh W 12.0 mph19.3 kmh 29.70 in1005.8 mb 0.00 in0.0 mm 0.00 in0.0 mm 0.00 in0.0 mm
06:00 PM 97.4°F36.3°C 42.0°F5.6°C 15% 4.0 mph W6.4 kmh W 9.0 mph14.5 kmh 29.71 in1006.1 mb 0.00 in0.0 mm 0.00 in0.0 mm 0.00 in0.0 mm
06:05 PM 97.2°F36.2°C 40.1°F4.5°C 14% 5.0 mph W8.0 kmh W 11.0 mph17.7 kmh 29.71 in1006.1 mb 0.00 in0.0 mm 0.00 in0.0 mm 0.00 in0.0 mm
06:10 PM 97.0°F36.1°C 39.9°F4.4°C 14% 6.0 mph W9.7 kmh W 11.0 mph17.7 kmh 29.71 in1006.1 mb 0.00 in0.0 mm 0.00 in0.0 mm 0.00 in0.0 mm
06:15 PM 96.7°F35.9°C 39.7°F4.3°C 14% 5.0 mph W8.0 kmh W 11.0 mph17.7 kmh 29.71 in1006.1 mb 0.00 in0.0 mm 0.00 in0.0 mm 0.00 in0.0 mm
06:20 PM 96.5°F35.8°C 39.5°F4.2°C 14% 5.0 mph WNW8.0 kmh WNW 11.0 mph17.7 kmh 29.71 in1006.1 mb 0.00 in0.0 mm 0.00 in0.0 mm 0.00 in0.0 mm
06:25 PM 96.3°F35.7°C 39.4°F4.1°C 14% 4.0 mph WNW6.4 kmh WNW 9.0 mph14.5 kmh 29.71 in1006.1 mb 0.00 in0.0 mm 0.00 in0.0 mm 0.00 in0.0 mm
06:30 PM 96.0°F35.6°C 39.1°F3.9°C 14% 4.0 mph W6.4 kmh W 9.0 mph14.5 kmh 29.71 in1006.1 mb 0.00 in0.0 mm 0.00 in0.0 mm 0.00 in0.0 mm
06:35 PM 95.6°F35.3°C 40.6°F4.8°C 15% 4.0 mph WNW6.4 kmh WNW 10.0 mph16.1 kmh 29.71 in1006.1 mb 0.00 in0.0 mm 0.00 in0.0 mm 0.00 in0.0 mm
06:40 PM 95.2°F35.1°C 40.3°F4.6°C 15% 4.0 mph WNW6.4 kmh WNW 10.0 mph16.1 kmh 29.71 in1006.1 mb 0.00 in0.0 mm 0.00 in0.0 mm 0.00 in0.0 mm
06:45 PM 94.9°F34.9°C 40.0°F4.4°C 15% 5.0 mph WNW8.0 kmh WNW 10.0 mph16.1 kmh 29.71 in1006.1 mb 0.00 in0.0 mm 0.00 in0.0 mm 0.00 in0.0 mm
06:50 PM 94.5°F34.7°C 41.4°F5.2°C 16% 4.0 mph WNW6.4 kmh WNW 9.0 mph14.5 kmh 29.71 in1006.1 mb 0.00 in0.0 mm 0.00 in0.0 mm 0.00 in0.0 mm
06:55 PM 94.2°F34.6°C 41.1°F5.1°C 16% 4.0 mph WNW6.4 kmh WNW 8.0 mph12.9 kmh 29.71 in1006.1 mb 0.00 in0.0 mm 0.00 in0.0 mm 0.00 in0.0 mm
07:00 PM 93.9°F34.4°C 40.9°F4.9°C 16% 5.0 mph NW8.0 kmh NW 10.0 mph16.1 kmh 29.72 in1006.4 mb 0.00 in0.0 mm 0.00 in0.0 mm 0.00 in0.0 mm
07:05 PM 93.6°F34.2°C 40.7°F4.8°C 16% 4.0 mph WNW6.4 kmh WNW 10.0 mph16.1 kmh 29.72 in1006.4 mb 0.00 in0.0 mm 0.00 in0.0 mm 0.00 in0.0 mm
07:10 PM 93.3°F34.1°C 40.4°F4.7°C 16% 3.0 mph WNW4.8 kmh WNW 9.0 mph14.5 kmh 29.72 in1006.4 mb 0.00 in0.0 mm 0.00 in0.0 mm 0.00 in0.0 mm
07:15 PM 93.1°F33.9°C 40.3°F4.6°C 16% 3.0 mph WNW4.8 kmh WNW 9.0 mph14.5 kmh 29.72 in1006.4 mb 0.00 in0.0 mm 0.00 in0.0 mm 0.00 in0.0 mm
07:20 PM 92.8°F33.8°C 41.6°F5.3°C 17% 3.0 mph NW4.8 kmh NW 9.0 mph14.5 kmh 29.72 in1006.4 mb 0.00 in0.0 mm 0.00 in0.0 mm 0.00 in0.0 mm
07:25 PM 92.5°F33.6°C 41.3°F5.2°C 17% 3.0 mph NW4.8 kmh NW 8.0 mph12.9 kmh 29.73 in1006.8 mb 0.00 in0.0 mm 0.00 in0.0 mm 0.00 in0.0 mm
07:30 PM 92.3°F33.5°C 42.7°F5.9°C 18% 4.0 mph NW6.4 kmh NW 8.0 mph12.9 kmh 29.73 in1006.8 mb 0.00 in0.0 mm 0.00 in0.0 mm 0.00 in0.0 mm
07:35 PM 92.0°F33.3°C 42.4°F5.8°C 18% 3.0 mph WNW4.8 kmh WNW 8.0 mph12.9 kmh 29.73 in1006.8 mb 0.00 in0.0 mm 0.00 in0.0 mm 0.00 in0.0 mm
07:40 PM 91.8°F33.2°C 42.3°F5.7°C 18% 3.0 mph WNW4.8 kmh WNW 9.0 mph14.5 kmh 29.73 in1006.8 mb 0.00 in0.0 mm 0.00 in0.0 mm 0.00 in0.0 mm
07:45 PM 91.7°F33.2°C 43.6°F6.4°C 19% 4.0 mph NW6.4 kmh NW 9.0 mph14.5 kmh 29.74 in1007.1 mb 0.00 in0.0 mm 0.00 in0.0 mm 0.00 in0.0 mm
07:50 PM 91.5°F33.1°C 43.4°F6.3°C 19% 4.0 mph NW6.4 kmh NW 8.0 mph12.9 kmh 29.74 in1007.1 mb 0.00 in0.0 mm 0.00 in0.0 mm 0.00 in0.0 mm
07:55 PM 91.4°F33.0°C 43.3°F6.3°C 19% 3.0 mph WNW4.8 kmh WNW 8.0 mph12.9 kmh 29.74 in1007.1 mb 0.00 in0.0 mm 0.00 in0.0 mm 0.00 in0.0 mm
08:00 PM 91.2°F32.9°C 44.5°F6.9°C 20% 3.0 mph WNW4.8 kmh WNW 9.0 mph14.5 kmh 29.75 in1007.5 mb 0.00 in0.0 mm 0.00 in0.0 mm 0.00 in0.0 mm
08:05 PM 91.0°F32.8°C 44.4°F6.9°C 20% 3.0 mph WNW4.8 kmh WNW 9.0 mph14.5 kmh 29.75 in1007.5 mb 0.00 in0.0 mm 0.00 in0.0 mm 0.00 in0.0 mm
08:10 PM 90.8°F32.7°C 44.2°F6.8°C 20% 3.0 mph WNW4.8 kmh WNW 7.0 mph11.3 kmh 29.75 in1007.5 mb 0.00 in0.0 mm 0.00 in0.0 mm 0.00 in0.0 mm
08:15 PM 90.7°F32.6°C 44.1°F6.7°C 20% 2.0 mph WNW3.2 kmh WNW 5.0 mph8.0 kmh 29.75 in1007.5 mb 0.00 in0.0 mm 0.00 in0.0 mm 0.00 in0.0 mm
08:20 PM 90.5°F32.5°C 43.9°F6.6°C 20% 2.0 mph WNW3.2 kmh WNW 4.0 mph6.4 kmh 29.76 in1007.8 mb 0.00 in0.0 mm 0.00 in0.0 mm 0.00 in0.0 mm
08:25 PM 90.4°F32.4°C 45.1°F7.3°C 21% 2.0 mph W3.2 kmh W 4.0 mph6.4 kmh 29.76 in1007.8 mb 0.00 in0.0 mm 0.00 in0.0 mm 0.00 in0.0 mm
08:30 PM 90.2°F32.3°C 45.0°F7.2°C 21% 2.0 mph WSW3.2 kmh WSW 4.0 mph6.4 kmh 29.76 in1007.8 mb 0.00 in0.0 mm 0.00 in0.0 mm 0.00 in0.0 mm
08:35 PM 90.0°F32.2°C 44.8°F7.1°C 21% 1.0 mph WSW1.6 kmh WSW 4.0 mph6.4 kmh 29.76 in1007.8 mb 0.00 in0.0 mm 0.00 in0.0 mm 0.00 in0.0 mm
08:40 PM 89.9°F32.2°C 44.7°F7.1°C 21% 1.0 mph WSW1.6 kmh WSW 3.0 mph4.8 kmh 29.76 in1007.8 mb 0.00 in0.0 mm 0.00 in0.0 mm 0.00 in0.0 mm
08:45 PM 89.7°F32.1°C 45.8°F7.7°C 22% 1.0 mph WSW1.6 kmh WSW 3.0 mph4.8 kmh 29.76 in1007.8 mb 0.00 in0.0 mm 0.00 in0.0 mm 0.00 in0.0 mm
08:50 PM 89.5°F31.9°C 45.6°F7.6°C 22% 1.0 mph WSW1.6 kmh WSW 2.0 mph3.2 kmh 29.77 in1008.1 mb 0.00 in0.0 mm 0.00 in0.0 mm 0.00 in0.0 mm
08:55 PM 89.4°F31.9°C 45.5°F7.5°C 22% 1.0 mph WSW1.6 kmh WSW 3.0 mph4.8 kmh 29.77 in1008.1 mb 0.00 in0.0 mm 0.00 in0.0 mm 0.00 in0.0 mm
09:00 PM 89.2°F31.8°C 46.6°F8.1°C 23% 1.0 mph WSW1.6 kmh WSW 3.0 mph4.8 kmh 29.77 in1008.1 mb 0.00 in0.0 mm 0.00 in0.0 mm 0.00 in0.0 mm
09:05 PM 89.0°F31.7°C 46.4°F8.0°C 23% 1.0 mph WSW1.6 kmh WSW 2.0 mph3.2 kmh 29.77 in1008.1 mb 0.00 in0.0 mm 0.00 in0.0 mm 0.00 in0.0 mm
09:10 PM 88.9°F31.6°C 46.3°F7.9°C 23% 1.0 mph WSW1.6 kmh WSW 3.0 mph4.8 kmh 29.77 in1008.1 mb 0.00 in0.0 mm 0.00 in0.0 mm 0.00 in0.0 mm
09:15 PM 88.8°F31.6°C 46.2°F7.9°C 23% 1.0 mph WSW1.6 kmh WSW 3.0 mph4.8 kmh 29.78 in1008.5 mb 0.00 in0.0 mm 0.00 in0.0 mm 0.00 in0.0 mm
09:20 PM 88.6°F31.4°C 46.1°F7.8°C 23% 1.0 mph WSW1.6 kmh WSW 2.0 mph3.2 kmh 29.78 in1008.5 mb 0.00 in0.0 mm 0.00 in0.0 mm 0.00 in0.0 mm
09:25 PM 88.4°F31.3°C 45.9°F7.7°C 23% 1.0 mph WSW1.6 kmh WSW 2.0 mph3.2 kmh 29.78 in1008.5 mb 0.00 in0.0 mm 0.00 in0.0 mm 0.00 in0.0 mm
09:30 PM 88.3°F31.3°C 46.9°F8.3°C 24% 1.0 mph WSW1.6 kmh WSW 2.0 mph3.2 kmh 29.78 in1008.5 mb 0.00 in0.0 mm 0.00 in0.0 mm 0.00 in0.0 mm
09:35 PM 88.1°F31.2°C 46.8°F8.2°C 24% 1.0 mph WSW1.6 kmh WSW 2.0 mph3.2 kmh 29.78 in1008.5 mb 0.00 in0.0 mm 0.00 in0.0 mm 0.00 in0.0 mm
09:40 PM 87.9°F31.1°C 46.6°F8.1°C 24% 1.0 mph WSW1.6 kmh WSW 2.0 mph3.2 kmh 29.79 in1008.8 mb 0.00 in0.0 mm 0.00 in0.0 mm 0.00 in0.0 mm
09:45 PM 87.7°F30.9°C 46.4°F8.0°C 24% 1.0 mph WSW1.6 kmh WSW 2.0 mph3.2 kmh 29.79 in1008.8 mb 0.00 in0.0 mm 0.00 in0.0 mm 0.00 in0.0 mm
09:50 PM 87.5°F30.8°C 46.3°F7.9°C 24% Calm Calm 1.0 mph1.6 kmh 29.79 in1008.8 mb 0.00 in0.0 mm 0.00 in0.0 mm 0.00 in0.0 mm
09:55 PM 87.3°F30.7°C 47.2°F8.4°C 25% 1.0 mph WSW1.6 kmh WSW 3.0 mph4.8 kmh 29.79 in1008.8 mb 0.00 in0.0 mm 0.00 in0.0 mm 0.00 in0.0 mm
10:00 PM 87.1°F30.6°C 47.0°F8.3°C 25% 4.0 mph SW6.4 kmh SW 13.0 mph20.9 kmh 29.80 in1009.1 mb 0.00 in0.0 mm 0.00 in0.0 mm 0.00 in0.0 mm
10:05 PM 86.9°F30.5°C 55.2°F12.9°C 34% 8.0 mph SSW12.9 kmh SSW 21.0 mph33.8 kmh 29.81 in1009.5 mb 0.00 in0.0 mm 0.00 in0.0 mm 0.00 in0.0 mm
10:10 PM 86.3°F30.2°C 57.7°F14.3°C 38% 11.0 mph SSW17.7 kmh SSW 23.0 mph37.0 kmh 29.81 in1009.5 mb 0.00 in0.0 mm 0.00 in0.0 mm 0.00 in0.0 mm
10:15 PM 85.7°F29.8°C 57.9°F14.4°C 39% 11.0 mph SW17.7 kmh SW 23.0 mph37.0 kmh 29.82 in1009.8 mb 0.00 in0.0 mm 0.00 in0.0 mm 0.00 in0.0 mm
10:20 PM 85.1°F29.5°C 58.8°F14.9°C 41% 10.0 mph SSW16.1 kmh SSW 22.0 mph35.4 kmh 29.82 in1009.8 mb 0.00 in0.0 mm 0.00 in0.0 mm 0.00 in0.0 mm
10:25 PM 84.3°F29.1°C 58.7°F14.8°C 42% 12.0 mph SSW19.3 kmh SSW 28.0 mph45.1 kmh 29.82 in1009.8 mb 0.00 in0.0 mm 0.00 in0.0 mm 0.00 in0.0 mm
10:30 PM 83.5°F28.6°C 58.6°F14.8°C 43% 14.0 mph SSW22.5 kmh SSW 28.0 mph45.1 kmh 29.82 in1009.8 mb 0.00 in0.0 mm 0.00 in0.0 mm 0.00 in0.0 mm
10:35 PM 82.9°F28.3°C 58.7°F14.8°C 44% 13.0 mph SSW20.9 kmh SSW 27.0 mph43.5 kmh 29.83 in1010.2 mb 0.00 in0.0 mm 0.00 in0.0 mm 0.00 in0.0 mm
10:40 PM 82.5°F28.1°C 59.0°F15.0°C 45% 12.0 mph SSW19.3 kmh SSW 25.0 mph40.2 kmh 29.83 in1010.2 mb 0.00 in0.0 mm 0.00 in0.0 mm 0.00 in0.0 mm
10:45 PM 82.1°F27.8°C 58.7°F14.8°C 45% 12.0 mph SW19.3 kmh SW 31.0 mph49.9 kmh 29.84 in1010.5 mb 0.00 in0.0 mm 0.00 in0.0 mm 0.00 in0.0 mm
10:50 PM 81.8°F27.7°C 58.4°F14.7°C 45% 12.0 mph SW19.3 kmh SW 31.0 mph49.9 kmh 29.84 in1010.5 mb 0.00 in0.0 mm 0.00 in0.0 mm 0.00 in0.0 mm
10:55 PM 81.5°F27.5°C 58.1°F14.5°C 45% 12.0 mph SW19.3 kmh SW 31.0 mph49.9 kmh 29.84 in1010.5 mb 0.00 in0.0 mm 0.00 in0.0 mm 0.00 in0.0 mm
11:00 PM 81.2°F27.3°C 57.8°F14.3°C 45% 12.0 mph SSW19.3 kmh SSW 31.0 mph49.9 kmh 29.84 in1010.5 mb 0.00 in0.0 mm 0.00 in0.0 mm 0.00 in0.0 mm
11:05 PM 81.0°F27.2°C 57.7°F14.3°C 45% 10.0 mph SSW16.1 kmh SSW 22.0 mph35.4 kmh 29.85 in1010.8 mb 0.00 in0.0 mm 0.00 in0.0 mm 0.00 in0.0 mm
11:10 PM 80.8°F27.1°C 56.9°F13.8°C 44% 9.0 mph SSW14.5 kmh SSW 18.0 mph29.0 kmh 29.85 in1010.8 mb 0.00 in0.0 mm 0.00 in0.0 mm 0.00 in0.0 mm
11:15 PM 80.8°F27.1°C 56.9°F13.8°C 44% 8.0 mph SSW12.9 kmh SSW 16.0 mph25.7 kmh 29.86 in1011.2 mb 0.00 in0.0 mm 0.00 in0.0 mm 0.00 in0.0 mm
11:20 PM 80.6°F27.0°C 57.3°F14.1°C 45% 7.0 mph SSW11.3 kmh SSW 16.0 mph25.7 kmh 29.88 in1011.9 mb 0.00 in0.0 mm 0.00 in0.0 mm 0.00 in0.0 mm
11:25 PM 80.5°F26.9°C 57.2°F14.0°C 45% 5.0 mph S8.0 kmh S 13.0 mph20.9 kmh 29.88 in1011.9 mb 0.00 in0.0 mm 0.00 in0.0 mm 0.00 in0.0 mm
11:30 PM 80.3°F26.8°C 57.0°F13.9°C 45% 2.0 mph S3.2 kmh S 11.0 mph17.7 kmh 29.89 in1012.2 mb 0.00 in0.0 mm 0.00 in0.0 mm 0.00 in0.0 mm
11:35 PM 80.2°F26.8°C 56.9°F13.8°C 45% 2.0 mph ESE3.2 kmh ESE 6.0 mph9.7 kmh 29.89 in1012.2 mb 0.00 in0.0 mm 0.00 in0.0 mm 0.00 in0.0 mm
11:40 PM 80.1°F26.7°C 56.8°F13.8°C 45% 3.0 mph S4.8 kmh S 8.0 mph12.9 kmh 29.89 in1012.2 mb 0.00 in0.0 mm 0.00 in0.0 mm 0.00 in0.0 mm
11:45 PM 80.0°F26.7°C 57.4°F14.1°C 46% 4.0 mph SSW6.4 kmh SSW 8.0 mph12.9 kmh 29.89 in1012.2 mb 0.00 in0.0 mm 0.00 in0.0 mm 0.00 in0.0 mm
11:50 PM 79.8°F26.6°C 57.2°F14.0°C 46% 3.0 mph S4.8 kmh S 5.0 mph8.0 kmh 29.89 in1012.2 mb 0.00 in0.0 mm 0.00 in0.0 mm 0.00 in0.0 mm
11:55 PM 79.7°F26.5°C 57.1°F13.9°C 46% 3.0 mph S4.8 kmh S 7.0 mph11.3 kmh 29.89 in1012.2 mb 0.00 in0.0 mm 0.00 in0.0 mm 0.00 in0.0 mm